Time;durP1;ratioP1;P1;durP2;ratioP2;P2;SDS_P1;SDS_P2;PMS_P1;PMS_P2;Temp;Humidity;BMP_temperature;BMP_pressure;BME280_temperature;BME280_humidity;BME280_pressure;Samples;Min_cycle;Max_cycle;Signal;HPM_P1;HPM_P2
2021/12/30 00:01:19;;;;;;;0.70;0.40;;;14.80;88.50;;;;;;5046463;28;20045;-72
2021/12/30 00:03:46;;;;;;;1.92;0.60;;;14.80;88.50;;;;;;5046034;28;20021;-73
2021/12/30 00:06:13;;;;;;;1.42;0.40;;;14.80;88.40;;;;;;5045438;28;20186;-72
2021/12/30 00:08:40;;;;;;;0.70;0.50;;;14.80;88.50;;;;;;5045913;28;20060;-72
2021/12/30 00:11:07;;;;;;;1.23;0.45;;;14.80;88.50;;;;;;5046314;28;20396;-72
2021/12/30 00:13:34;;;;;;;1.10;0.60;;;14.80;88.50;;;;;;5044760;28;20511;-72
2021/12/30 00:16:00;;;;;;;0.52;0.40;;;14.80;88.50;;;;;;5045791;28;20139;-72
2021/12/30 00:18:27;;;;;;;0.68;0.40;;;14.80;88.50;;;;;;5046023;28;20358;-71
2021/12/30 00:20:54;;;;;;;1.33;0.50;;;14.80;88.50;;;;;;5045628;28;20041;-72
2021/12/30 00:23:20;;;;;;;2.03;0.43;;;14.80;88.50;;;;;;5045770;28;20033;-71
2021/12/30 00:25:48;;;;;;;0.88;0.65;;;14.80;88.50;;;;;;5045342;28;20114;-71
2021/12/30 00:28:17;;;;;;;0.73;0.52;;;14.80;88.50;;;;;;5045599;28;20405;-72
2021/12/30 00:30:44;;;;;;;1.00;0.40;;;14.80;88.50;;;;;;5045248;28;20025;-73
2021/12/30 00:33:11;;;;;;;0.77;0.40;;;14.80;88.50;;;;;;5045736;28;20025;-73
2021/12/30 00:35:37;;;;;;;1.00;0.45;;;14.80;88.50;;;;;;5045305;28;20033;-71
2021/12/30 00:38:05;;;;;;;1.35;0.77;;;14.80;88.40;;;;;;5045516;28;20116;-71
2021/12/30 00:40:32;;;;;;;0.30;0.30;;;14.80;88.50;;;;;;5045871;28;20036;-73
2021/12/30 00:42:59;;;;;;;2.08;0.40;;;14.80;88.50;;;;;;5027670;28;20488;-72
2021/12/30 00:45:28;;;;;;;0.45;0.35;;;14.80;88.50;;;;;;5045908;28;20036;-71
2021/12/30 00:47:54;;;;;;;1.35;0.35;;;14.80;88.90;;;;;;5027426;28;20049;-71
2021/12/30 00:50:22;;;;;;;0.60;0.40;;;14.80;88.40;;;;;;5046036;28;20053;-71
2021/12/30 00:52:47;;;;;;;0.55;0.40;;;14.80;88.40;;;;;;5049058;28;20029;-72
2021/12/30 00:55:13;;;;;;;1.23;0.40;;;14.80;88.40;;;;;;5049287;28;20499;-71
2021/12/30 00:57:41;;;;;;;1.85;0.32;;;14.80;88.40;;;;;;5048854;28;20047;-72
2021/12/30 01:00:11;;;;;;;0.45;0.45;;;14.80;88.40;;;;;;5049395;28;20033;-71
2021/12/30 01:02:37;;;;;;;2.70;0.50;;;14.80;88.40;;;;;;5049226;28;20427;-71
2021/12/30 01:05:04;;;;;;;1.05;0.28;;;14.80;88.40;;;;;;5049040;28;20467;-72
2021/12/30 01:07:30;;;;;;;1.00;0.73;;;14.80;88.40;;;;;;5048640;28;20035;-71
2021/12/30 01:09:56;;;;;;;0.98;0.30;;;14.80;88.40;;;;;;5048395;28;20034;-72
2021/12/30 01:12:23;;;;;;;1.58;0.82;;;14.80;88.40;;;;;;5030959;28;20463;-72
2021/12/30 01:14:49;;;;;;;1.40;0.55;;;14.80;88.40;;;;;;5049584;28;20036;-72
2021/12/30 01:18:21;;;;;;;1.13;0.30;;;14.80;88.40;;;;;;5031003;28;20029;-71
2021/12/30 01:20:07;;;;;;;0.93;0.40;;;14.80;88.50;;;;;;5060768;28;20128;-72
2021/12/30 01:22:33;;;;;;;0.47;0.20;;;14.80;88.40;;;;;;5068722;28;20028;-73
2021/12/30 01:25:00;;;;;;;5.68;2.05;;;14.80;88.40;;;;;;5019951;28;20029;-72
2021/12/30 01:27:26;;;;;;;0.50;0.30;;;14.80;88.40;;;;;;5030983;28;20091;-71
2021/12/30 01:29:52;;;;;;;0.75;0.30;;;14.80;88.50;;;;;;5048138;28;20025;-72
2021/12/30 01:32:19;;;;;;;1.52;0.73;;;14.80;88.50;;;;;;5048578;28;20033;-73
2021/12/30 01:34:47;;;;;;;1.15;0.30;;;14.80;88.40;;;;;;5039470;28;20029;-71
2021/12/30 01:37:14;;;;;;;0.57;0.43;;;14.80;88.40;;;;;;5047900;28;20090;-72
2021/12/30 01:39:41;;;;;;;1.02;0.45;;;14.80;88.40;;;;;;5048129;28;20434;-72
2021/12/30 01:42:10;;;;;;;0.57;0.20;;;14.80;88.40;;;;;;5048562;28;20106;-72
2021/12/30 01:44:37;;;;;;;0.55;0.28;;;14.80;88.40;;;;;;5047848;28;20040;-72
2021/12/30 01:47:04;;;;;;;1.70;0.30;;;14.80;88.40;;;;;;5067090;28;20066;-71
2021/12/30 01:49:31;;;;;;;0.52;0.30;;;14.90;88.50;;;;;;5055102;28;20182;-72
2021/12/30 01:51:58;;;;;;;1.88;0.50;;;14.80;88.40;;;;;;5047029;28;20029;-72
2021/12/30 01:54:25;;;;;;;0.50;0.22;;;14.90;88.60;;;;;;5046906;28;20037;-72
2021/12/30 01:56:52;;;;;;;2.60;0.30;;;14.90;88.50;;;;;;5047654;28;20043;-72
2021/12/30 01:59:20;;;;;;;2.33;0.32;;;14.90;88.60;;;;;;5046957;28;20037;-71
2021/12/30 02:01:48;;;;;;;1.92;0.47;;;14.80;88.40;;;;;;5029126;28;20041;-71
2021/12/30 02:04:14;;;;;;;0.45;0.45;;;14.90;88.60;;;;;;5046757;28;20043;-71
2021/12/30 02:06:41;;;;;;;1.75;0.40;;;14.80;88.40;;;;;;5047284;28;20384;-72
2021/12/30 02:09:07;;;;;;;1.15;0.30;;;14.80;88.90;;;;;;5046481;28;20489;-72
2021/12/30 02:11:34;;;;;;;0.90;0.20;;;14.80;88.40;;;;;;5029531;28;20107;-72
2021/12/30 02:14:00;;;;;;;1.15;0.57;;;14.80;88.40;;;;;;5031564;28;20051;-71
2021/12/30 02:16:26;;;;;;;0.32;0.30;;;14.80;88.40;;;;;;5046729;28;20039;-71
2021/12/30 02:18:53;;;;;;;0.63;0.32;;;14.80;88.40;;;;;;5046177;28;20047;-72
2021/12/30 02:21:19;;;;;;;1.23;0.30;;;14.80;88.40;;;;;;5047098;28;20051;-71
2021/12/30 02:23:46;;;;;;;0.80;0.30;;;14.80;88.40;;;;;;5050259;28;20045;-73
2021/12/30 02:26:17;;;;;;;0.65;0.43;;;14.80;88.40;;;;;;5048829;28;20044;-72
2021/12/30 02:28:44;;;;;;;2.45;0.60;;;14.80;88.40;;;;;;5060396;28;20037;-72
2021/12/30 02:31:16;;;;;;;2.88;0.30;;;14.80;88.40;;;;;;5055668;28;20045;-72
2021/12/30 02:33:44;;;;;;;1.77;0.40;;;14.80;88.40;;;;;;5067241;28;20047;-71
2021/12/30 02:36:15;;;;;;;1.65;0.30;;;14.80;88.40;;;;;;5068629;28;20040;-71
2021/12/30 02:38:45;;;;;;;0.13;0.13;;;14.80;88.40;;;;;;5067005;28;20033;-71
2021/12/30 02:41:18;;;;;;;0.68;0.30;;;14.80;88.40;;;;;;5068019;28;20054;-71
2021/12/30 02:43:49;;;;;;;0.98;0.45;;;14.90;88.50;;;;;;5068047;28;20040;-72
2021/12/30 02:46:24;;;;;;;0.75;0.40;;;14.80;88.30;;;;;;5068326;28;20349;-71
2021/12/30 02:48:52;;;;;;;0.40;0.20;;;14.80;88.30;;;;;;5071287;28;20058;-71
2021/12/30 02:51:20;;;;;;;1.83;0.50;;;14.80;88.30;;;;;;5070779;28;20039;-71
2021/12/30 02:53:47;;;;;;;1.30;0.30;;;14.80;88.30;;;;;;5070581;28;20045;-71
2021/12/30 02:56:14;;;;;;;1.33;0.30;;;14.80;88.30;;;;;;5071234;28;20037;-71
2021/12/30 02:58:41;;;;;;;1.42;0.70;;;14.80;88.30;;;;;;5071301;28;20033;-71
2021/12/30 03:01:11;;;;;;;1.50;0.30;;;14.80;88.30;;;;;;5070703;28;20047;-71
2021/12/30 03:03:38;;;;;;;1.95;0.43;;;14.80;88.30;;;;;;5070879;28;20054;-71
2021/12/30 03:06:06;;;;;;;2.53;0.45;;;14.80;88.30;;;;;;5071025;28;20036;-71
2021/12/30 03:08:33;;;;;;;1.20;0.50;;;14.80;88.30;;;;;;5070068;28;20044;-71
2021/12/30 03:11:01;;;;;;;1.80;0.32;;;14.80;88.30;;;;;;5071077;28;20510;-71
2021/12/30 03:13:32;;;;;;;1.33;0.47;;;14.80;88.30;;;;;;5069533;28;20037;-71
2021/12/30 03:16:04;;;;;;;3.53;1.42;;;14.80;88.30;;;;;;5070880;28;20036;-71
2021/12/30 03:18:33;;;;;;;2.83;0.60;;;14.80;88.40;;;;;;5070786;28;20422;-71
2021/12/30 03:21:00;;;;;;;2.00;0.65;;;14.80;88.30;;;;;;5070154;28;20052;-72
2021/12/30 03:23:27;;;;;;;2.17;0.95;;;14.80;88.30;;;;;;5070595;28;20028;-72
2021/12/30 03:25:53;;;;;;;2.42;0.68;;;14.80;88.30;;;;;;5070475;28;20496;-71
2021/12/30 03:28:19;;;;;;;3.10;0.70;;;14.80;88.40;;;;;;5070387;28;20047;-71
2021/12/30 03:30:47;;;;;;;1.13;0.63;;;14.80;88.30;;;;;;5068780;28;20036;-71
2021/12/30 03:33:13;;;;;;;1.52;0.70;;;14.80;88.40;;;;;;5070546;28;20048;-71
2021/12/30 03:35:39;;;;;;;1.98;0.65;;;14.80;88.30;;;;;;5068663;28;20051;-71
2021/12/30 03:38:06;;;;;;;2.25;0.68;;;14.80;88.30;;;;;;5070664;28;20210;-73
2021/12/30 03:40:34;;;;;;;3.15;1.10;;;14.80;88.30;;;;;;5069800;28;20049;-71
2021/12/30 03:43:01;;;;;;;2.88;0.90;;;14.80;88.30;;;;;;5070017;28;20395;-72
2021/12/30 03:45:27;;;;;;;3.17;0.82;;;14.80;88.30;;;;;;5069196;28;20036;-71
2021/12/30 03:47:54;;;;;;;3.90;0.70;;;14.90;89.00;;;;;;5070575;28;20044;-70
2021/12/30 03:50:24;;;;;;;3.00;0.65;;;14.90;88.40;;;;;;5069490;28;20024;-71
2021/12/30 03:52:53;;;;;;;0.82;0.60;;;14.90;88.50;;;;;;5070580;28;20059;-70
2021/12/30 03:55:20;;;;;;;2.10;0.80;;;14.80;88.30;;;;;;5070828;28;20029;-70
2021/12/30 03:57:47;;;;;;;3.63;0.70;;;14.80;88.30;;;;;;5070418;28;20042;-71
2021/12/30 04:00:14;;;;;;;3.08;1.13;;;14.90;88.40;;;;;;5070907;28;20032;-71
2021/12/30 04:02:40;;;;;;;1.40;0.70;;;14.90;88.40;;;;;;5070751;28;20043;-71
2021/12/30 04:05:07;;;;;;;2.85;1.08;;;14.90;88.40;;;;;;5070629;28;20116;-71
2021/12/30 04:07:33;;;;;;;5.50;0.80;;;14.80;88.30;;;;;;5070294;28;20036;-71
2021/12/30 04:09:59;;;;;;;2.80;0.70;;;14.80;88.30;;;;;;5070197;28;20028;-71
2021/12/30 04:12:25;;;;;;;3.05;0.75;;;14.80;88.30;;;;;;5070842;28;20027;-71
2021/12/30 04:14:51;;;;;;;3.35;0.75;;;14.80;88.30;;;;;;5070521;28;20032;-71
2021/12/30 04:17:17;;;;;;;1.88;0.98;;;14.80;88.30;;;;;;5070442;28;20498;-71
2021/12/30 04:19:43;;;;;;;3.40;1.05;;;14.80;88.30;;;;;;5070724;28;20028;-71
2021/12/30 04:22:09;;;;;;;5.57;1.27;;;14.80;88.40;;;;;;5070080;28;20337;-71
2021/12/30 04:24:35;;;;;;;3.83;1.15;;;14.80;88.40;;;;;;5071208;28;20064;-71
2021/12/30 04:27:01;;;;;;;7.80;2.22;;;14.80;88.40;;;;;;5074364;28;20044;-71
2021/12/30 04:29:27;;;;;;;4.40;1.25;;;14.80;88.30;;;;;;5074715;28;20028;-70
2021/12/30 04:31:53;;;;;;;5.10;1.60;;;14.80;88.40;;;;;;5074427;28;20037;-71
2021/12/30 04:34:19;;;;;;;6.55;1.85;;;14.80;88.30;;;;;;5074395;28;20036;-71
2021/12/30 04:36:45;;;;;;;3.70;1.13;;;14.80;88.30;;;;;;5074474;28;20386;-71
2021/12/30 04:39:10;;;;;;;4.13;1.42;;;14.80;88.30;;;;;;5073781;28;20091;-71
2021/12/30 04:41:37;;;;;;;6.90;2.53;;;14.80;88.30;;;;;;5073811;28;20086;-71
2021/12/30 04:44:03;;;;;;;6.15;1.80;;;14.80;88.30;;;;;;5074408;28;20509;-71
2021/12/30 04:46:29;;;;;;;5.80;1.90;;;14.90;88.50;;;;;;5074321;28;20036;-71
2021/12/30 04:48:55;;;;;;;4.20;1.88;;;14.90;88.40;;;;;;5074231;28;20040;-71
2021/12/30 04:51:21;;;;;;;5.05;1.52;;;14.90;88.40;;;;;;5073634;28;20028;-70
2021/12/30 04:53:48;;;;;;;9.52;2.17;;;14.90;88.40;;;;;;5056414;28;20055;-71
2021/12/30 04:56:14;;;;;;;4.82;1.35;;;14.80;88.20;;;;;;5056103;28;20048;-71
2021/12/30 04:58:40;;;;;;;7.45;1.30;;;14.90;88.40;;;;;;5074183;28;20071;-70
2021/12/30 05:01:06;;;;;;;6.60;1.95;;;14.90;88.40;;;;;;5072265;28;20086;-71
2021/12/30 05:03:31;;;;;;;7.90;2.30;;;14.90;88.50;;;;;;5073947;28;20029;-72
2021/12/30 05:05:58;;;;;;;7.05;2.15;;;14.80;88.30;;;;;;5073409;28;20102;-70
2021/12/30 05:08:25;;;;;;;5.32;2.13;;;14.80;88.30;;;;;;5073479;28;20063;-71
2021/12/30 05:10:52;;;;;;;7.72;2.28;;;14.80;88.30;;;;;;5073783;28;20391;-71
2021/12/30 05:13:19;;;;;;;7.78;2.20;;;14.80;88.30;;;;;;5073579;28;20454;-70
2021/12/30 05:15:47;;;;;;;5.28;1.60;;;14.80;88.30;;;;;;5073791;28;20032;-70
2021/12/30 05:18:14;;;;;;;5.97;2.58;;;14.80;88.30;;;;;;5073450;28;20067;-71
2021/12/30 05:20:40;;;;;;;5.90;1.90;;;14.80;88.30;;;;;;5073955;28;20115;-71
2021/12/30 05:23:08;;;;;;;7.90;2.45;;;14.80;88.30;;;;;;5055645;28;20039;-71
2021/12/30 05:25:34;;;;;;;7.68;2.25;;;14.80;88.30;;;;;;5073104;28;20029;-71
2021/12/30 05:28:00;;;;;;;10.48;2.80;;;14.80;88.30;;;;;;5073784;28;20037;-71
2021/12/30 05:30:27;;;;;;;6.68;2.83;;;14.80;88.30;;;;;;5073129;28;20020;-71
2021/12/30 05:32:55;;;;;;;9.10;2.85;;;14.80;88.30;;;;;;5073497;28;20040;-71
2021/12/30 05:35:21;;;;;;;8.57;2.60;;;14.80;88.30;;;;;;5072602;28;20032;-70
2021/12/30 05:37:48;;;;;;;10.35;2.97;;;14.80;88.30;;;;;;5071983;28;20150;-71
2021/12/30 05:40:18;;;;;;;6.78;2.15;;;14.80;88.20;;;;;;5072512;28;20051;-70
2021/12/30 05:42:44;;;;;;;7.78;2.42;;;14.80;88.20;;;;;;5073155;28;20209;-70
2021/12/30 05:45:14;;;;;;;12.07;4.25;;;14.90;88.40;;;;;;5072958;28;20021;-72
2021/12/30 05:47:41;;;;;;;7.07;2.47;;;14.80;88.20;;;;;;5070318;28;20124;-71
2021/12/30 05:50:08;;;;;;;14.00;3.92;;;14.80;88.30;;;;;;5069855;28;20028;-71
2021/12/30 05:52:36;;;;;;;11.75;3.63;;;14.80;88.30;;;;;;5069931;28;20034;-72
2021/12/30 05:55:04;;;;;;;8.63;3.47;;;14.80;88.30;;;;;;5069921;28;20021;-72
2021/12/30 05:57:30;;;;;;;7.45;2.53;;;14.80;88.30;;;;;;5049940;28;20025;-72
2021/12/30 05:59:56;;;;;;;9.65;2.75;;;14.80;88.30;;;;;;5031492;28;20029;-72
2021/12/30 06:02:22;;;;;;;6.63;2.40;;;14.80;88.30;;;;;;5050424;28;20115;-72
2021/12/30 06:04:48;;;;;;;9.95;2.90;;;14.80;88.30;;;;;;5068071;28;20058;-71
2021/12/30 06:07:14;;;;;;;11.93;4.10;;;14.80;88.30;;;;;;5067793;28;20067;-72
2021/12/30 06:09:41;;;;;;;12.93;3.08;;;14.80;88.30;;;;;;5067236;28;20028;-72
2021/12/30 06:12:08;;;;;;;7.57;2.97;;;14.80;88.30;;;;;;5067531;28;20410;-72
2021/12/30 06:14:34;;;;;;;10.02;3.05;;;14.80;88.40;;;;;;5067803;28;20506;-71
2021/12/30 06:17:00;;;;;;;9.48;3.10;;;14.80;88.40;;;;;;5067822;28;20067;-71
2021/12/30 06:19:26;;;;;;;14.02;4.25;;;14.80;88.40;;;;;;5067536;28;20059;-71
2021/12/30 06:21:52;;;;;;;10.55;3.53;;;14.90;88.50;;;;;;5049722;28;20055;-71
2021/12/30 06:24:18;;;;;;;8.00;2.92;;;14.90;88.50;;;;;;5050001;28;20476;-72
2021/12/30 06:26:44;;;;;;;12.68;3.00;;;14.90;88.50;;;;;;5067501;28;20028;-72
2021/12/30 06:29:10;;;;;;;9.98;3.28;;;14.90;88.50;;;;;;5065994;28;20112;-72
2021/12/30 06:31:37;;;;;;;10.30;2.95;;;14.90;88.50;;;;;;5067897;28;20483;-72
2021/12/30 06:34:03;;;;;;;9.07;3.30;;;14.90;88.50;;;;;;5066653;28;20059;-72
2021/12/30 06:36:29;;;;;;;11.90;2.97;;;14.90;88.40;;;;;;5067556;28;20484;-72
2021/12/30 06:38:55;;;;;;;11.00;2.78;;;15.00;88.60;;;;;;5058297;28;20028;-72
2021/12/30 06:41:21;;;;;;;11.27;4.32;;;14.90;88.40;;;;;;5047798;28;20090;-72
2021/12/30 06:43:47;;;;;;;9.10;2.95;;;14.90;88.40;;;;;;5051588;28;20036;-73
2021/12/30 06:46:14;;;;;;;6.55;2.65;;;14.90;88.40;;;;;;5062181;28;20120;-72
2021/12/30 06:48:44;;;;;;;12.55;3.97;;;15.00;88.60;;;;;;5066477;28;20044;-73
2021/12/30 06:51:12;;;;;;;7.95;2.75;;;15.00;88.60;;;;;;5067052;28;20556;-74
2021/12/30 06:53:38;;;;;;;9.23;4.57;;;15.00;88.60;;;;;;5066943;28;20032;-72
2021/12/30 06:56:04;;;;;;;10.55;3.08;;;15.00;88.60;;;;;;5066320;28;20093;-73
2021/12/30 06:58:30;;;;;;;12.07;3.78;;;15.00;88.70;;;;;;5066204;28;20404;-73
2021/12/30 07:00:57;;;;;;;8.25;3.13;;;15.00;88.70;;;;;;5066366;28;20064;-72
2021/12/30 07:03:24;;;;;;;8.70;2.97;;;15.00;88.70;;;;;;5048872;28;20059;-72
2021/12/30 07:05:54;;;;;;;8.18;2.72;;;15.10;88.90;;;;;;5061641;28;20540;-71
2021/12/30 07:08:23;;;;;;;8.43;3.15;;;15.10;89.00;;;;;;5055162;28;20061;-73
2021/12/30 07:10:50;;;;;;;10.88;2.83;;;15.10;89.00;;;;;;5046273;28;20508;-71
2021/12/30 07:13:16;;;;;;;8.52;2.60;;;15.10;89.10;;;;;;5045721;28;20473;-71
2021/12/30 07:15:42;;;;;;;10.40;2.65;;;15.10;89.10;;;;;;5045968;28;20032;-72
2021/12/30 07:18:08;;;;;;;9.77;2.83;;;15.20;89.30;;;;;;5038088;28;20287;-71
2021/12/30 07:20:34;;;;;;;8.63;2.38;;;15.20;89.30;;;;;;5046110;28;20037;-71
2021/12/30 07:23:00;;;;;;;9.27;3.10;;;15.20;89.40;;;;;;5056937;28;20037;-71
2021/12/30 07:25:26;;;;;;;8.25;2.47;;;15.20;89.30;;;;;;5049956;28;20420;-71
2021/12/30 07:27:54;;;;;;;8.40;3.08;;;15.20;89.30;;;;;;5031215;28;20037;-71
2021/12/30 07:30:23;;;;;;;4.50;1.63;;;15.20;89.30;;;;;;5066081;28;20028;-71
2021/12/30 07:32:49;;;;;;;4.95;1.90;;;15.20;89.30;;;;;;5058740;28;20201;-72
2021/12/30 07:35:17;;;;;;;8.70;2.53;;;15.20;89.40;;;;;;5049729;28;20024;-72
2021/12/30 07:37:44;;;;;;;9.15;1.95;;;15.10;89.30;;;;;;5065132;28;20029;-71
2021/12/30 07:40:11;;;;;;;4.75;1.85;;;15.10;89.30;;;;;;5055096;28;20279;-72
2021/12/30 07:42:37;;;;;;;6.50;2.25;;;15.10;89.30;;;;;;5061394;28;20040;-71
2021/12/30 07:45:04;;;;;;;8.85;3.35;;;15.10;89.30;;;;;;5066484;28;20196;-71
2021/12/30 07:47:30;;;;;;;7.18;2.10;;;15.10;89.30;;;;;;5063793;28;20152;-74
2021/12/30 07:49:56;;;;;;;7.18;1.75;;;15.10;89.40;;;;;;5045701;28;20104;-71
2021/12/30 07:52:23;;;;;;;6.70;2.47;;;15.10;89.40;;;;;;5031901;28;20071;-72
2021/12/30 07:54:48;;;;;;;6.20;1.92;;;15.10;89.40;;;;;;5065244;28;20025;-72
2021/12/30 07:57:21;;;;;;;7.97;2.83;;;15.10;89.40;;;;;;5063428;28;20372;-73
2021/12/30 07:59:51;;;;;;;9.98;3.47;;;15.10;89.40;;;;;;5042022;28;20090;-72
2021/12/30 08:02:18;;;;;;;4.43;1.52;;;15.00;89.20;;;;;;5042807;28;20076;-72
2021/12/30 08:04:45;;;;;;;2.92;1.70;;;15.00;89.20;;;;;;5043365;28;20048;-73
2021/12/30 08:07:11;;;;;;;6.18;1.58;;;15.10;89.30;;;;;;5043794;28;20572;-72
2021/12/30 08:09:37;;;;;;;8.02;2.10;;;15.10;89.30;;;;;;5042596;28;20068;-72
2021/12/30 08:12:04;;;;;;;4.78;1.40;;;15.10;89.30;;;;;;5051173;28;20024;-72
2021/12/30 08:14:30;;;;;;;6.03;1.88;;;15.10;89.30;;;;;;5065842;28;20056;-73
2021/12/30 08:16:56;;;;;;;9.77;3.03;;;15.10;89.80;;;;;;5065318;28;20102;-73
2021/12/30 08:19:22;;;;;;;3.92;1.60;;;15.10;89.30;;;;;;5049154;28;20029;-72
2021/12/30 08:21:48;;;;;;;6.18;2.17;;;15.10;89.30;;;;;;5044941;28;20032;-73
2021/12/30 08:24:14;;;;;;;7.15;1.90;;;15.10;89.30;;;;;;5045608;28;20033;-73
2021/12/30 08:26:40;;;;;;;4.70;2.13;;;15.10;89.20;;;;;;5026145;28;20033;-73
2021/12/30 08:29:07;;;;;;;6.65;2.17;;;15.10;89.20;;;;;;5051617;28;20057;-73
2021/12/30 08:31:34;;;;;;;5.28;2.25;;;15.10;89.20;;;;;;5045976;28;20041;-72
2021/12/30 08:34:00;;;;;;;7.57;1.83;;;15.10;89.20;;;;;;5059587;28;20059;-72
2021/12/30 08:36:26;;;;;;;6.63;1.63;;;15.10;89.20;;;;;;5047956;28;20043;-71
2021/12/30 08:38:52;;;;;;;7.93;1.95;;;15.10;89.20;;;;;;5053004;28;20537;-73
2021/12/30 08:41:18;;;;;;;4.32;1.50;;;15.10;89.20;;;;;;5045314;28;20508;-72
2021/12/30 08:43:44;;;;;;;4.10;1.70;;;15.10;89.20;;;;;;5044935;28;20120;-73
2021/12/30 08:46:10;;;;;;;4.45;1.80;;;15.10;89.70;;;;;;5045374;28;20025;-72
2021/12/30 08:48:38;;;;;;;5.70;2.38;;;15.10;89.10;;;;;;5044992;28;20056;-74
2021/12/30 08:51:05;;;;;;;4.53;1.50;;;15.10;89.10;;;;;;5045611;28;20033;-72
2021/12/30 08:53:31;;;;;;;4.63;2.03;;;15.10;89.10;;;;;;5044754;28;20052;-73
2021/12/30 08:55:57;;;;;;;6.18;2.60;;;15.10;89.10;;;;;;5045077;28;20041;-72
2021/12/30 08:58:23;;;;;;;4.07;1.70;;;15.10;89.10;;;;;;5044996;28;20033;-74
2021/12/30 09:00:50;;;;;;;4.15;1.65;;;15.10;89.00;;;;;;5044877;28;20159;-72
2021/12/30 09:03:17;;;;;;;5.88;1.85;;;15.10;88.90;;;;;;5045215;28;20641;-72
2021/12/30 09:05:43;;;;;;;6.75;2.03;;;15.20;89.10;;;;;;5053722;28;20032;-72
2021/12/30 09:08:09;;;;;;;6.57;1.70;;;15.20;89.00;;;;;;5058570;28;20029;-72
2021/12/30 09:10:40;;;;;;;5.55;1.77;;;15.20;88.90;;;;;;5045313;28;20523;-72
2021/12/30 09:13:08;;;;;;;4.50;1.30;;;15.30;89.10;;;;;;5047496;28;20032;-73
2021/12/30 09:15:36;;;;;;;7.80;2.42;;;15.30;89.00;;;;;;5049189;28;20392;-73
2021/12/30 09:18:05;;;;;;;2.85;1.35;;;15.40;89.10;;;;;;5049276;28;20040;-73
2021/12/30 09:20:31;;;;;;;5.07;1.80;;;15.40;89.00;;;;;;5030867;28;20021;-72
2021/12/30 09:22:58;;;;;;;3.55;1.25;;;15.40;88.90;;;;;;5048347;28;20048;-72
2021/12/30 09:25:25;;;;;;;2.78;1.08;;;15.50;89.00;;;;;;5031029;28;20078;-72
2021/12/30 09:27:53;;;;;;;5.88;2.38;;;15.50;88.90;;;;;;5047984;28;20484;-73
2021/12/30 09:30:19;;;;;;;6.95;2.13;;;15.50;88.80;;;;;;5030289;28;20040;-72
2021/12/30 09:32:47;;;;;;;3.70;1.48;;;15.50;88.70;;;;;;5048318;28;20025;-72
2021/12/30 09:35:13;;;;;;;2.47;1.10;;;15.60;88.90;;;;;;5048534;28;20029;-72
2021/12/30 09:37:41;;;;;;;3.72;1.05;;;15.60;88.80;;;;;;5048651;28;20032;-73
2021/12/30 09:40:10;;;;;;;5.13;1.52;;;15.60;88.80;;;;;;5030709;28;20108;-72
2021/12/30 09:42:39;;;;;;;4.90;1.08;;;15.60;88.90;;;;;;5047334;28;20512;-72
2021/12/30 09:45:05;;;;;;;3.92;1.55;;;15.70;89.10;;;;;;5029611;28;20044;-72
2021/12/30 09:47:33;;;;;;;3.58;1.30;;;15.70;89.10;;;;;;5048151;28;20608;-72
2021/12/30 09:49:59;;;;;;;4.75;1.50;;;15.70;89.10;;;;;;5048025;28;20029;-72
2021/12/30 09:52:26;;;;;;;5.45;1.33;;;15.70;89.00;;;;;;5047854;28;20220;-72
2021/12/30 09:54:52;;;;;;;5.88;2.35;;;15.70;89.00;;;;;;5048356;28;20044;-73
2021/12/30 09:57:18;;;;;;;5.60;2.10;;;15.70;89.00;;;;;;5030025;28;20033;-73
2021/12/30 09:59:44;;;;;;;5.40;1.50;;;15.70;88.90;;;;;;5047974;28;20029;-73
2021/12/30 10:02:10;;;;;;;1.80;1.20;;;15.80;89.00;;;;;;5047578;28;20461;-73
2021/12/30 10:04:36;;;;;;;5.63;1.50;;;15.80;89.00;;;;;;5051538;28;20025;-73
2021/12/30 10:07:16;;;;;;;5.45;1.13;;;15.80;88.90;;;;;;5061284;28;20494;-73
2021/12/30 10:09:50;;;;;;;5.28;1.80;;;15.80;88.90;;;;;;5048746;28;20025;-73
2021/12/30 10:12:32;;;;;;;2.35;0.85;;;15.80;88.90;;;;;;5047048;28;20126;-72
2021/12/30 10:14:58;;;;;;;5.00;1.60;;;15.90;88.90;;;;;;5046941;28;20028;-73
2021/12/30 10:17:27;;;;;;;4.32;1.08;;;15.90;88.80;;;;;;5047758;28;20025;-72
2021/12/30 10:19:55;;;;;;;2.70;0.90;;;15.90;88.80;;;;;;5045466;28;20040;-74
2021/12/30 10:22:23;;;;;;;3.17;1.00;;;15.90;88.80;;;;;;5047329;28;20086;-74
2021/12/30 10:24:50;;;;;;;2.78;1.00;;;15.90;88.70;;;;;;5047441;28;20033;-74
2021/12/30 10:27:42;;;;;;;5.00;1.33;;;15.90;88.70;;;;;;5046936;28;20044;-73
2021/12/30 10:30:09;;;;;;;2.70;0.85;;;15.90;88.70;;;;;;5043394;28;20094;-74
2021/12/30 10:32:35;;;;;;;3.30;0.80;;;15.90;88.70;;;;;;5051357;28;20028;-73
2021/12/30 10:35:08;;;;;;;3.67;1.40;;;15.90;88.70;;;;;;5066420;28;20032;-73
2021/12/30 10:37:35;;;;;;;4.63;1.25;;;15.90;88.70;;;;;;5066798;28;20424;-73
2021/12/30 10:40:03;;;;;;;2.33;0.73;;;15.90;88.70;;;;;;5067719;28;20098;-73
2021/12/30 10:42:32;;;;;;;4.32;1.10;;;15.90;88.70;;;;;;5066748;28;20491;-73
2021/12/30 10:45:04;;;;;;;2.15;0.90;;;15.90;88.70;;;;;;5065740;28;20209;-73
2021/12/30 10:47:48;;;;;;;3.13;1.08;;;15.90;88.70;;;;;;5066330;28;20048;-73
2021/12/30 10:50:16;;;;;;;3.33;0.90;;;15.90;88.70;;;;;;5067051;28;20024;-72
2021/12/30 10:52:50;;;;;;;4.07;1.05;;;15.90;88.60;;;;;;5066499;28;20033;-74
2021/12/30 10:55:16;;;;;;;3.63;1.40;;;15.90;89.10;;;;;;5048903;28;20472;-74
2021/12/30 10:57:42;;;;;;;6.38;2.08;;;15.90;88.60;;;;;;5067141;28;20089;-73
2021/12/30 11:00:10;;;;;;;3.47;1.02;;;15.90;88.50;;;;;;5058094;28;20025;-73
2021/12/30 11:02:36;;;;;;;3.15;1.00;;;16.00;88.60;;;;;;5054772;28;20068;-74
2021/12/30 11:05:09;;;;;;;2.33;1.05;;;16.00;88.50;;;;;;5051735;28;20036;-74
2021/12/30 11:07:40;;;;;;;;;;;16.00;88.50;;;;;;5065973;28;20032;-72
2021/12/30 11:10:06;;;;;;;3.50;1.00;;;16.00;88.40;;;;;;5066076;28;19909;-73
2021/12/30 11:12:38;;;;;;;2.95;1.17;;;16.10;88.50;;;;;;5044287;28;20463;-73
2021/12/30 11:15:20;;;;;;;3.25;0.90;;;16.10;88.40;;;;;;5046259;28;20031;-73
2021/12/30 11:17:47;;;;;;;2.78;0.90;;;16.10;88.30;;;;;;5046301;28;20040;-73
2021/12/30 11:20:16;;;;;;;4.72;1.80;;;16.20;88.40;;;;;;5046269;28;20048;-72
2021/12/30 11:22:43;;;;;;;2.95;1.35;;;16.30;88.50;;;;;;5046399;28;20029;-73
2021/12/30 11:25:12;;;;;;;3.92;1.27;;;16.50;88.60;;;;;;5046406;28;20087;-72
2021/12/30 11:27:40;;;;;;;2.47;1.00;;;16.50;88.30;;;;;;5046224;28;20040;-73
2021/12/30 11:30:08;;;;;;;2.95;0.98;;;16.60;88.30;;;;;;5028861;28;20127;-73
2021/12/30 11:32:35;;;;;;;2.53;0.90;;;16.60;88.00;;;;;;5045894;28;20033;-73
2021/12/30 11:35:03;;;;;;;2.35;1.00;;;16.70;88.20;;;;;;5046158;28;20052;-73
2021/12/30 11:37:30;;;;;;;3.10;0.98;;;16.70;88.00;;;;;;5028787;28;20385;-73
2021/12/30 11:40:00;;;;;;;2.97;0.95;;;16.80;88.10;;;;;;5046281;28;20076;-72
2021/12/30 11:42:52;;;;;;;1.67;1.00;;;16.80;87.90;;;;;;5045801;28;20659;-73
2021/12/30 11:45:29;;;;;;;3.33;1.10;;;16.90;87.90;;;;;;5046171;28;20171;-72
2021/12/30 11:47:58;;;;;;;2.30;1.00;;;16.90;87.90;;;;;;5045734;28;20481;-73
2021/12/30 11:50:26;;;;;;;4.93;0.95;;;16.90;87.80;;;;;;5062848;28;20040;-73
2021/12/30 11:53:05;;;;;;;1.83;0.93;;;16.90;87.80;;;;;;5051261;28;20085;-73
2021/12/30 11:55:50;;;;;;;2.47;1.20;;;16.90;87.80;;;;;;5065526;28;20028;-72
2021/12/30 11:58:29;;;;;;;1.67;0.70;;;16.90;87.80;;;;;;5058596;28;20048;-72
2021/12/30 12:00:58;;;;;;;1.95;0.63;;;16.90;87.80;;;;;;5044526;28;20033;-72
2021/12/30 12:03:40;;;;;;;2.40;0.88;;;16.90;87.80;;;;;;5045454;28;20033;-72
2021/12/30 12:06:27;;;;;;;3.92;1.65;;;16.90;87.90;;;;;;5045014;28;20052;-72
2021/12/30 12:08:59;;;;;;;3.33;0.90;;;16.90;87.80;;;;;;5045119;28;20033;-72
2021/12/30 12:11:31;;;;;;;1.42;0.73;;;16.90;87.70;;;;;;5027083;28;20036;-72
2021/12/30 12:14:24;;;;;;;1.50;0.70;;;17.00;87.60;;;;;;5039798;28;20048;-72
2021/12/30 12:17:30;;;;;;;2.65;0.80;;;17.10;87.50;;;;;;5045464;28;20039;-72
2021/12/30 12:19:56;;;;;;;2.50;0.80;;;17.10;87.40;;;;;;5005816;28;20206;-72
2021/12/30 12:22:24;;;;;;;1.88;0.77;;;17.10;87.40;;;;;;5045379;28;20120;-72
2021/12/30 12:25:12;;;;;;;2.38;0.68;;;17.10;87.30;;;;;;5045297;28;20029;-72
2021/12/30 12:27:50;;;;;;;3.35;0.82;;;17.10;87.30;;;;;;5045798;28;20504;-73
2021/12/30 12:30:28;;;;;;;1.80;0.80;;;17.10;87.30;;;;;;5045517;28;20029;-72
2021/12/30 12:32:55;;;;;;;1.02;0.50;;;17.10;87.20;;;;;;5045090;28;20624;-73
2021/12/30 12:35:21;;;;;;;1.45;0.50;;;17.20;87.40;;;;;;5046241;28;20029;-73
2021/12/30 12:37:50;;;;;;;1.58;0.57;;;17.30;87.40;;;;;;5045451;28;20123;-73
2021/12/30 12:40:16;;;;;;;1.63;0.60;;;17.30;87.20;;;;;;5045957;28;20082;-72
2021/12/30 12:42:48;;;;;;;3.72;1.20;;;17.30;87.10;;;;;;5033332;28;20036;-72
2021/12/30 12:45:23;;;;;;;1.65;0.70;;;17.40;87.10;;;;;;5047021;28;20051;-72
2021/12/30 12:50:47;;;;;;;1.80;0.60;;;17.40;86.90;;;;;;5049642;28;20029;-71
2021/12/30 12:53:26;;;;;;;1.67;0.60;;;17.30;86.80;;;;;;5048553;28;20155;-72